Newell, Iowa
Current Conditions -  °F | °C
As of 6:55 PM on Monday 24 Nov 2014 (Local Time) from KSLB Reporting Station
Overcast Overcast  
Wind Chill:   Ceiling: 2300
Heat Index: 23°   Visibility: 10mi
Dew Point: 14°   Wind: 22mph
Humidity: 68%   Direction: 320°NW
Pressure: 29.89"   Gusts: 31mph
Location:  42.61°N, 95°W
Report Text: KSLB 250055Z AUTO 32019G27KT 10SM OVC023 M05/M10 A2989 RMK AO2
Loading
Personal Weather Stations






























Interactive Weather Map New forecast layout! Learn more

10-Day Weather Forecast

Advertisements
Track Severe Weather on mobile